Terminal Aerodrome Forecast
Issued by NWS Greer, SC

Home | Current Version | Previous Version | Text Only | Print | Product List | Glossary On
Versions: 1 2 3 4 5 6 7 8 9 10 11 12 13 14 15 16 17 18 19 20 21 22 23 24 25 26 27 28 29 30
000
FTUS42 KGSP 212339
TAFAVL
TAF
KAVL 212339Z 2200/2224 17003KT P6SM BKN070
     FM220800 16003KT 6SM BR SCT040 BKN250
     FM221000 17003KT 4SM BR SCT017 BKN100
     FM221300 18007KT P6SM VCSH SCT025 BKN060
     FM222000 17008KT P6SM SCT008 OVC011 WS020/20035KT PROB30
      2221/2224 3SM -SHRA OVC008=

USA.gov is the U.S. government's official web portal to all federal, state and local government web resources and services.